sensor_id;sensor_type;location;lat;lon;timestamp;pressure;altitude;pressure_sealevel;temperature;humidity
72118;BME280;59992;47.490;8.736;2023-03-15T00:00:33;96187.19;;;4.17;86.03
72118;BME280;59992;47.490;8.736;2023-03-15T00:03:21;96180.30;;;4.13;86.92
72118;BME280;59992;47.490;8.736;2023-03-15T00:06:11;96190.05;;;4.13;86.93
72118;BME280;59992;47.490;8.736;2023-03-15T00:08:59;96199.19;;;4.10;87.24
72118;BME280;59992;47.490;8.736;2023-03-15T00:11:48;96202.48;;;3.99;86.82
72118;BME280;59992;47.490;8.736;2023-03-15T00:14:36;96206.20;;;3.98;86.91
72118;BME280;59992;47.490;8.736;2023-03-15T00:17:25;96210.20;;;3.98;87.29
72118;BME280;59992;47.490;8.736;2023-03-15T00:20:14;96217.70;;;3.94;87.64
72118;BME280;59992;47.490;8.736;2023-03-15T00:23:02;96223.96;;;3.91;87.90
72118;BME280;59992;47.490;8.736;2023-03-15T00:25:51;96226.13;;;3.91;87.91
72118;BME280;59992;47.490;8.736;2023-03-15T00:28:39;96227.02;;;3.89;87.92
72118;BME280;59992;47.490;8.736;2023-03-15T00:31:28;96232.83;;;3.90;87.33
72118;BME280;59992;47.490;8.736;2023-03-15T00:34:16;96240.33;;;3.95;87.94
72118;BME280;59992;47.490;8.736;2023-03-15T00:37:05;96238.83;;;3.97;88.26
72118;BME280;59992;47.490;8.736;2023-03-15T00:39:53;96249.94;;;3.97;88.72
72118;BME280;59992;47.490;8.736;2023-03-15T00:42:41;96260.86;;;3.99;89.33
72118;BME280;59992;47.490;8.736;2023-03-15T00:45:36;96268.92;;;4.03;88.87
72118;BME280;59992;47.490;8.736;2023-03-15T00:48:26;96272.24;;;3.97;87.78
72118;BME280;59992;47.490;8.736;2023-03-15T00:51:16;96280.16;;;4.00;87.65
72118;BME280;59992;47.490;8.736;2023-03-15T00:54:04;96281.95;;;4.03;87.69
72118;BME280;59992;47.490;8.736;2023-03-15T00:56:53;96276.66;;;3.95;88.19
72118;BME280;59992;47.490;8.736;2023-03-15T00:59:41;96287.81;;;3.98;86.71
72118;BME280;59992;47.490;8.736;2023-03-15T01:02:31;96296.37;;;3.97;86.90
72118;BME280;59992;47.490;8.736;2023-03-15T01:05:20;96304.02;;;3.90;86.97
72118;BME280;59992;47.490;8.736;2023-03-15T01:08:09;96313.17;;;3.91;86.95
72118;BME280;59992;47.490;8.736;2023-03-15T01:11:01;96322.62;;;3.89;87.23
72118;BME280;59992;47.490;8.736;2023-03-15T01:13:50;96334.29;;;3.89;88.08
72118;BME280;59992;47.490;8.736;2023-03-15T01:16:38;96340.93;;;3.84;86.70
72118;BME280;59992;47.490;8.736;2023-03-15T01:19:27;96349.77;;;3.82;86.79
72118;BME280;59992;47.490;8.736;2023-03-15T01:22:14;96356.69;;;3.80;86.80
72118;BME280;59992;47.490;8.736;2023-03-15T01:25:03;96372.04;;;3.78;86.65
72118;BME280;59992;47.490;8.736;2023-03-15T01:27:51;96373.14;;;3.75;87.07
72118;BME280;59992;47.490;8.736;2023-03-15T01:30:39;96382.33;;;3.72;86.84
72118;BME280;59992;47.490;8.736;2023-03-15T01:33:27;96383.02;;;3.69;87.01
72118;BME280;59992;47.490;8.736;2023-03-15T01:36:16;96383.41;;;3.63;86.61
72118;BME280;59992;47.490;8.736;2023-03-15T01:39:04;96391.14;;;3.63;86.52
72118;BME280;59992;47.490;8.736;2023-03-15T01:41:52;96388.54;;;3.64;86.91
72118;BME280;59992;47.490;8.736;2023-03-15T01:44:52;96396.69;;;3.64;86.32
72118;BME280;59992;47.490;8.736;2023-03-15T01:47:41;96398.85;;;3.63;85.89
72118;BME280;59992;47.490;8.736;2023-03-15T01:50:29;96406.73;;;3.63;85.23
72118;BME280;59992;47.490;8.736;2023-03-15T01:53:18;96412.19;;;3.61;86.26
72118;BME280;59992;47.490;8.736;2023-03-15T01:56:07;96417.09;;;3.59;85.63
72118;BME280;59992;47.490;8.736;2023-03-15T01:58:58;96416.02;;;3.57;84.84
72118;BME280;59992;47.490;8.736;2023-03-15T02:01:48;96419.25;;;3.52;86.28
72118;BME280;59992;47.490;8.736;2023-03-15T02:04:40;96433.13;;;3.55;87.64
72118;BME280;59992;47.490;8.736;2023-03-15T02:07:32;96438.71;;;3.48;88.56
72118;BME280;59992;47.490;8.736;2023-03-15T02:10:24;96441.05;;;3.46;88.72
72118;BME280;59992;47.490;8.736;2023-03-15T02:13:17;96446.20;;;3.46;88.41
72118;BME280;59992;47.490;8.736;2023-03-15T02:16:06;96450.89;;;3.45;87.65
72118;BME280;59992;47.490;8.736;2023-03-15T02:18:55;96452.14;;;3.45;87.70
72118;BME280;59992;47.490;8.736;2023-03-15T02:21:51;96457.92;;;3.47;86.94
72118;BME280;59992;47.490;8.736;2023-03-15T02:24:48;96461.42;;;3.45;83.98
72118;BME280;59992;47.490;8.736;2023-03-15T02:27:39;96460.92;;;3.46;83.59
72118;BME280;59992;47.490;8.736;2023-03-15T02:30:28;96462.86;;;3.47;83.63
72118;BME280;59992;47.490;8.736;2023-03-15T02:33:19;96461.77;;;3.47;83.71
72118;BME280;59992;47.490;8.736;2023-03-15T02:36:13;96465.14;;;3.46;83.15
72118;BME280;59992;47.490;8.736;2023-03-15T02:39:13;96468.41;;;3.43;82.64
72118;BME280;59992;47.490;8.736;2023-03-15T02:42:02;96476.33;;;3.35;82.43
72118;BME280;59992;47.490;8.736;2023-03-15T02:44:50;96480.07;;;3.26;82.71
72118;BME280;59992;47.490;8.736;2023-03-15T02:47:40;96485.63;;;3.15;83.67
72118;BME280;59992;47.490;8.736;2023-03-15T02:50:28;96487.81;;;3.07;83.07
72118;BME280;59992;47.490;8.736;2023-03-15T02:53:17;96490.22;;;2.93;83.78
72118;BME280;59992;47.490;8.736;2023-03-15T02:56:07;96491.59;;;2.78;84.28
72118;BME280;59992;47.490;8.736;2023-03-15T02:58:55;96497.13;;;2.57;86.36
72118;BME280;59992;47.490;8.736;2023-03-15T03:01:44;96498.48;;;2.46;86.88
72118;BME280;59992;47.490;8.736;2023-03-15T03:04:32;96504.14;;;2.32;87.52
72118;BME280;59992;47.490;8.736;2023-03-15T03:07:20;96506.27;;;2.21;87.00
72118;BME280;59992;47.490;8.736;2023-03-15T03:10:11;96513.95;;;2.08;87.26
72118;BME280;59992;47.490;8.736;2023-03-15T03:12:59;96513.10;;;1.94;87.30
72118;BME280;59992;47.490;8.736;2023-03-15T03:15:49;96518.20;;;1.79;88.15
72118;BME280;59992;47.490;8.736;2023-03-15T03:18:45;96516.93;;;1.69;88.68
72118;BME280;59992;47.490;8.736;2023-03-15T03:21:33;96523.27;;;1.63;88.29
72118;BME280;59992;47.490;8.736;2023-03-15T03:24:22;96522.33;;;1.52;89.01
72118;BME280;59992;47.490;8.736;2023-03-15T03:27:12;96530.20;;;1.42;89.34
72118;BME280;59992;47.490;8.736;2023-03-15T03:30:01;96531.36;;;1.35;89.08
72118;BME280;59992;47.490;8.736;2023-03-15T03:32:49;96537.85;;;1.24;89.01
72118;BME280;59992;47.490;8.736;2023-03-15T03:35:38;96545.00;;;1.16;89.16
72118;BME280;59992;47.490;8.736;2023-03-15T03:38:26;96549.92;;;1.05;90.33
72118;BME280;59992;47.490;8.736;2023-03-15T03:41:14;96554.81;;;1.00;90.34
72118;BME280;59992;47.490;8.736;2023-03-15T03:44:02;96559.03;;;0.93;90.96
72118;BME280;59992;47.490;8.736;2023-03-15T03:46:50;96564.25;;;0.89;90.98
72118;BME280;59992;47.490;8.736;2023-03-15T03:49:38;96568.33;;;0.82;90.28
72118;BME280;59992;47.490;8.736;2023-03-15T03:52:26;96568.48;;;0.74;91.39
72118;BME280;59992;47.490;8.736;2023-03-15T03:55:14;96571.19;;;0.70;90.73
72118;BME280;59992;47.490;8.736;2023-03-15T03:58:02;96575.78;;;0.60;90.37
72118;BME280;59992;47.490;8.736;2023-03-15T04:00:51;96582.58;;;0.52;91.12
72118;BME280;59992;47.490;8.736;2023-03-15T04:03:41;96586.32;;;0.47;90.35
72118;BME280;59992;47.490;8.736;2023-03-15T04:06:29;96587.61;;;0.40;90.56
72118;BME280;59992;47.490;8.736;2023-03-15T04:09:18;96594.40;;;0.34;90.45
72118;BME280;59992;47.490;8.736;2023-03-15T04:12:06;96598.95;;;0.29;91.39
72118;BME280;59992;47.490;8.736;2023-03-15T04:14:54;96605.75;;;0.24;92.07
72118;BME280;59992;47.490;8.736;2023-03-15T04:17:43;96610.92;;;0.20;91.76
72118;BME280;59992;47.490;8.736;2023-03-15T04:20:31;96608.25;;;0.16;91.71
72118;BME280;59992;47.490;8.736;2023-03-15T04:23:22;96609.77;;;0.11;91.96
72118;BME280;59992;47.490;8.736;2023-03-15T04:26:10;96612.80;;;0.08;92.03
72118;BME280;59992;47.490;8.736;2023-03-15T04:28:58;96615.99;;;0.07;92.50
72118;BME280;59992;47.490;8.736;2023-03-15T04:31:46;96616.43;;;0.06;92.11
72118;BME280;59992;47.490;8.736;2023-03-15T04:34:35;96616.53;;;0.03;92.32
72118;BME280;59992;47.490;8.736;2023-03-15T04:37:24;96620.45;;;-0.02;92.36
72118;BME280;59992;47.490;8.736;2023-03-15T04:40:13;96625.14;;;-0.05;93.48
72118;BME280;59992;47.490;8.736;2023-03-15T04:43:02;96637.53;;;-0.05;93.51
72118;BME280;59992;47.490;8.736;2023-03-15T04:45:51;96639.50;;;-0.09;93.78
72118;BME280;59992;47.490;8.736;2023-03-15T04:48:39;96639.37;;;-0.09;94.26
72118;BME280;59992;47.490;8.736;2023-03-15T04:51:27;96641.48;;;-0.07;93.99
72118;BME280;59992;47.490;8.736;2023-03-15T04:54:15;96638.84;;;-0.08;93.05
72118;BME280;59992;47.490;8.736;2023-03-15T04:57:04;96639.52;;;-0.09;92.51
72118;BME280;59992;47.490;8.736;2023-03-15T04:59:52;96631.34;;;-0.17;93.05
72118;BME280;59992;47.490;8.736;2023-03-15T05:02:41;96644.72;;;-0.10;92.56
72118;BME280;59992;47.490;8.736;2023-03-15T05:05:32;96647.88;;;-0.14;91.83
72118;BME280;59992;47.490;8.736;2023-03-15T05:08:21;96651.98;;;-0.19;91.52
72118;BME280;59992;47.490;8.736;2023-03-15T05:11:09;96653.86;;;-0.25;92.71
72118;BME280;59992;47.490;8.736;2023-03-15T05:13:57;96660.70;;;-0.32;92.76
72118;BME280;59992;47.490;8.736;2023-03-15T05:16:45;96663.23;;;-0.36;92.14
72118;BME280;59992;47.490;8.736;2023-03-15T05:19:35;96662.34;;;-0.42;91.19
72118;BME280;59992;47.490;8.736;2023-03-15T05:22:23;96670.08;;;-0.49;90.53
72118;BME280;59992;47.490;8.736;2023-03-15T05:25:12;96667.95;;;-0.54;92.86
72118;BME280;59992;47.490;8.736;2023-03-15T05:28:01;96660.95;;;-0.60;91.74
72118;BME280;59992;47.490;8.736;2023-03-15T05:30:51;96670.03;;;-0.59;91.67
72118;BME280;59992;47.490;8.736;2023-03-15T05:33:40;96673.58;;;-0.59;93.17
72118;BME280;59992;47.490;8.736;2023-03-15T05:36:34;96671.42;;;-0.58;93.39
72118;BME280;59992;47.490;8.736;2023-03-15T05:39:22;96671.02;;;-0.59;92.75
72118;BME280;59992;47.490;8.736;2023-03-15T05:42:10;96678.71;;;-0.58;93.58
72118;BME280;59992;47.490;8.736;2023-03-15T05:44:58;96683.63;;;-0.56;94.12
72118;BME280;59992;47.490;8.736;2023-03-15T05:47:47;96687.48;;;-0.53;93.66
72118;BME280;59992;47.490;8.736;2023-03-15T05:50:35;96690.09;;;-0.51;93.38
72118;BME280;59992;47.490;8.736;2023-03-15T05:53:23;96694.28;;;-0.49;93.18
72118;BME280;59992;47.490;8.736;2023-03-15T05:56:11;96698.66;;;-0.46;93.57
72118;BME280;59992;47.490;8.736;2023-03-15T05:59:00;96705.08;;;-0.44;93.61
72118;BME280;59992;47.490;8.736;2023-03-15T06:01:49;96705.52;;;-0.39;93.46
72118;BME280;59992;47.490;8.736;2023-03-15T06:04:38;96706.22;;;-0.38;93.07
72118;BME280;59992;47.490;8.736;2023-03-15T06:07:26;96708.12;;;-0.33;94.14
72118;BME280;59992;47.490;8.736;2023-03-15T06:10:15;96710.84;;;-0.22;94.57
72118;BME280;59992;47.490;8.736;2023-03-15T06:13:03;96712.77;;;-0.10;94.72
72118;BME280;59992;47.490;8.736;2023-03-15T06:15:52;96714.84;;;-0.01;94.95
72118;BME280;59992;47.490;8.736;2023-03-15T06:18:40;96714.25;;;0.06;94.03
72118;BME280;59992;47.490;8.736;2023-03-15T06:21:29;96721.56;;;0.13;94.25
72118;BME280;59992;47.490;8.736;2023-03-15T06:24:17;96723.42;;;0.23;93.64
72118;BME280;59992;47.490;8.736;2023-03-15T06:27:05;96722.57;;;0.31;93.35
72118;BME280;59992;47.490;8.736;2023-03-15T06:30:08;96723.39;;;0.40;93.31
72118;BME280;59992;47.490;8.736;2023-03-15T06:33:17;96725.36;;;0.51;91.77
72118;BME280;59992;47.490;8.736;2023-03-15T06:36:07;96726.52;;;0.63;92.03
72118;BME280;59992;47.490;8.736;2023-03-15T06:38:55;96728.64;;;1.22;92.45
72118;BME280;59992;47.490;8.736;2023-03-15T06:41:43;96722.88;;;1.71;90.89
72118;BME280;59992;47.490;8.736;2023-03-15T06:44:32;96727.08;;;2.49;86.99
72118;BME280;59992;47.490;8.736;2023-03-15T06:47:20;96729.85;;;3.36;81.99
72118;BME280;59992;47.490;8.736;2023-03-15T06:50:12;96729.21;;;4.18;77.68
72118;BME280;59992;47.490;8.736;2023-03-15T06:53:00;96730.45;;;5.00;74.38
72118;BME280;59992;47.490;8.736;2023-03-15T06:55:49;96734.71;;;5.58;71.03
72118;BME280;59992;47.490;8.736;2023-03-15T06:58:38;96732.70;;;6.12;69.23
72118;BME280;59992;47.490;8.736;2023-03-15T07:01:26;96741.06;;;6.64;67.37
72118;BME280;59992;47.490;8.736;2023-03-15T07:04:15;96739.00;;;7.05;65.66
72118;BME280;59992;47.490;8.736;2023-03-15T07:07:03;96738.35;;;7.43;64.49
72118;BME280;59992;47.490;8.736;2023-03-15T07:09:51;96741.25;;;7.83;62.90
72118;BME280;59992;47.490;8.736;2023-03-15T07:12:40;96743.82;;;8.12;61.77
72118;BME280;59992;47.490;8.736;2023-03-15T07:15:29;96743.80;;;8.50;59.85
72118;BME280;59992;47.490;8.736;2023-03-15T07:18:17;96746.75;;;8.67;60.72
72118;BME280;59992;47.490;8.736;2023-03-15T07:21:05;96754.55;;;8.80;59.05
72118;BME280;59992;47.490;8.736;2023-03-15T07:23:54;96752.40;;;9.07;58.50
72118;BME280;59992;47.490;8.736;2023-03-15T07:26:43;96753.83;;;9.17;57.63
72118;BME280;59992;47.490;8.736;2023-03-15T07:29:31;96754.05;;;9.27;57.51
72118;BME280;59992;47.490;8.736;2023-03-15T07:32:20;96757.58;;;9.70;55.48
72118;BME280;59992;47.490;8.736;2023-03-15T07:35:08;96764.05;;;9.92;55.62
72118;BME280;59992;47.490;8.736;2023-03-15T07:37:56;96771.79;;;10.09;55.71
72118;BME280;59992;47.490;8.736;2023-03-15T07:40:45;96770.27;;;10.42;54.80
72118;BME280;59992;47.490;8.736;2023-03-15T07:43:34;96773.19;;;10.73;51.27
72118;BME280;59992;47.490;8.736;2023-03-15T07:46:22;96771.94;;;10.70;51.10
72118;BME280;59992;47.490;8.736;2023-03-15T07:49:10;96773.27;;;10.79;50.74
72118;BME280;59992;47.490;8.736;2023-03-15T07:51:58;96776.81;;;10.31;50.45
72118;BME280;59992;47.490;8.736;2023-03-15T07:54:46;96778.11;;;10.46;49.79
72118;BME280;59992;47.490;8.736;2023-03-15T07:57:34;96778.24;;;10.44;50.23
72118;BME280;59992;47.490;8.736;2023-03-15T08:00:23;96777.08;;;10.55;51.35
72118;BME280;59992;47.490;8.736;2023-03-15T08:03:12;96773.08;;;10.30;50.37
72118;BME280;59992;47.490;8.736;2023-03-15T08:06:00;96771.71;;;10.38;50.47
72118;BME280;59992;47.490;8.736;2023-03-15T08:08:48;96777.22;;;10.29;50.71
72118;BME280;59992;47.490;8.736;2023-03-15T08:11:36;96776.98;;;10.19;51.51
72118;BME280;59992;47.490;8.736;2023-03-15T08:14:25;96775.22;;;9.99;51.51
72118;BME280;59992;47.490;8.736;2023-03-15T08:17:13;96773.77;;;9.90;53.02
72118;BME280;59992;47.490;8.736;2023-03-15T08:20:03;96770.11;;;10.21;52.34
72118;BME280;59992;47.490;8.736;2023-03-15T08:22:52;96773.89;;;10.20;51.07
72118;BME280;59992;47.490;8.736;2023-03-15T08:25:40;96769.86;;;10.15;52.05
72118;BME280;59992;47.490;8.736;2023-03-15T08:28:29;96767.55;;;9.94;50.81
72118;BME280;59992;47.490;8.736;2023-03-15T08:31:17;96771.68;;;9.87;51.89
72118;BME280;59992;47.490;8.736;2023-03-15T08:34:05;96765.98;;;9.82;50.51
72118;BME280;59992;47.490;8.736;2023-03-15T08:36:53;96772.27;;;9.79;52.83
72118;BME280;59992;47.490;8.736;2023-03-15T08:39:41;96770.45;;;9.98;53.32
72118;BME280;59992;47.490;8.736;2023-03-15T08:42:30;96773.55;;;9.95;52.39
72118;BME280;59992;47.490;8.736;2023-03-15T08:45:19;96776.59;;;10.27;52.56
72118;BME280;59992;47.490;8.736;2023-03-15T08:48:08;96770.54;;;10.28;51.84
72118;BME280;59992;47.490;8.736;2023-03-15T08:50:56;96763.17;;;10.23;51.69
72118;BME280;59992;47.490;8.736;2023-03-15T08:53:49;96769.03;;;9.50;51.54
72118;BME280;59992;47.490;8.736;2023-03-15T08:56:37;96773.55;;;9.35;50.94
72118;BME280;59992;47.490;8.736;2023-03-15T08:59:26;96768.80;;;9.13;52.72
72118;BME280;59992;47.490;8.736;2023-03-15T09:02:14;96764.36;;;9.32;51.93
72118;BME280;59992;47.490;8.736;2023-03-15T09:05:03;96764.50;;;9.28;51.67
72118;BME280;59992;47.490;8.736;2023-03-15T09:07:53;96763.91;;;9.25;53.39
72118;BME280;59992;47.490;8.736;2023-03-15T09:10:41;96763.67;;;9.08;51.96
72118;BME280;59992;47.490;8.736;2023-03-15T09:13:29;96768.44;;;9.10;52.94
72118;BME280;59992;47.490;8.736;2023-03-15T09:16:18;96763.92;;;9.19;52.74
72118;BME280;59992;47.490;8.736;2023-03-15T09:19:06;96768.20;;;9.28;52.41
72118;BME280;59992;47.490;8.736;2023-03-15T09:21:54;96768.52;;;9.39;52.78
72118;BME280;59992;47.490;8.736;2023-03-15T09:24:42;96773.40;;;9.56;52.41
72118;BME280;59992;47.490;8.736;2023-03-15T09:27:30;96775.53;;;9.57;48.96
72118;BME280;59992;47.490;8.736;2023-03-15T09:30:19;96772.02;;;9.70;50.08
72118;BME280;59992;47.490;8.736;2023-03-15T09:33:07;96772.83;;;9.50;48.88
72118;BME280;59992;47.490;8.736;2023-03-15T09:35:55;96781.54;;;9.19;49.96
72118;BME280;59992;47.490;8.736;2023-03-15T09:38:43;96788.31;;;9.22;48.22
72118;BME280;59992;47.490;8.736;2023-03-15T09:41:44;96790.73;;;9.18;48.73
72118;BME280;59992;47.490;8.736;2023-03-15T09:44:44;96786.18;;;8.97;46.96
72118;BME280;59992;47.490;8.736;2023-03-15T09:47:41;96787.27;;;8.98;47.96
72118;BME280;59992;47.490;8.736;2023-03-15T09:50:36;96785.55;;;9.09;48.63
72118;BME280;59992;47.490;8.736;2023-03-15T09:53:31;96780.73;;;9.00;48.05
72118;BME280;59992;47.490;8.736;2023-03-15T09:56:26;96786.57;;;8.90;48.81
72118;BME280;59992;47.490;8.736;2023-03-15T09:59:15;96790.98;;;8.89;47.95
72118;BME280;59992;47.490;8.736;2023-03-15T10:02:18;96799.30;;;8.86;48.20
72118;BME280;59992;47.490;8.736;2023-03-15T10:05:13;96800.68;;;8.87;48.40
72118;BME280;59992;47.490;8.736;2023-03-15T10:08:09;96792.79;;;8.89;47.92
72118;BME280;59992;47.490;8.736;2023-03-15T10:11:07;96798.36;;;8.82;47.29
72118;BME280;59992;47.490;8.736;2023-03-15T10:14:12;96798.59;;;8.72;44.34
72118;BME280;59992;47.490;8.736;2023-03-15T10:17:08;96793.12;;;8.64;45.23
72118;BME280;59992;47.490;8.736;2023-03-15T10:20:02;96785.06;;;8.81;46.50
72118;BME280;59992;47.490;8.736;2023-03-15T10:22:57;96782.14;;;8.91;44.31
72118;BME280;59992;47.490;8.736;2023-03-15T10:25:50;96784.38;;;9.01;44.76
72118;BME280;59992;47.490;8.736;2023-03-15T10:28:39;96784.55;;;8.98;45.61
72118;BME280;59992;47.490;8.736;2023-03-15T10:31:32;96786.80;;;9.14;45.27
72118;BME280;59992;47.490;8.736;2023-03-15T10:34:24;96790.36;;;9.15;44.82
72118;BME280;59992;47.490;8.736;2023-03-15T10:37:13;96792.06;;;9.10;44.68
72118;BME280;59992;47.490;8.736;2023-03-15T10:40:02;96790.69;;;9.09;42.04
72118;BME280;59992;47.490;8.736;2023-03-15T10:42:58;96783.90;;;8.86;41.86
72118;BME280;59992;47.490;8.736;2023-03-15T10:45:59;96779.61;;;8.64;40.74
72118;BME280;59992;47.490;8.736;2023-03-15T10:48:55;96776.85;;;8.50;41.16
72118;BME280;59992;47.490;8.736;2023-03-15T10:51:45;96781.73;;;8.22;41.19
72118;BME280;59992;47.490;8.736;2023-03-15T10:54:34;96777.35;;;8.08;42.52
72118;BME280;59992;47.490;8.736;2023-03-15T10:57:25;96780.93;;;8.09;42.99
72118;BME280;59992;47.490;8.736;2023-03-15T11:00:24;96776.98;;;8.16;42.59
72118;BME280;59992;47.490;8.736;2023-03-15T11:03:17;96769.98;;;8.15;42.99
72118;BME280;59992;47.490;8.736;2023-03-15T11:06:19;96772.48;;;8.09;41.31
72118;BME280;59992;47.490;8.736;2023-03-15T11:09:10;96767.23;;;8.28;44.79
72118;BME280;59992;47.490;8.736;2023-03-15T11:12:00;96757.83;;;8.47;43.65
72118;BME280;59992;47.490;8.736;2023-03-15T11:14:51;96752.17;;;8.56;42.63
72118;BME280;59992;47.490;8.736;2023-03-15T11:17:44;96749.98;;;8.63;42.86
72118;BME280;59992;47.490;8.736;2023-03-15T11:20:35;96757.88;;;8.65;43.20
72118;BME280;59992;47.490;8.736;2023-03-15T11:23:28;96758.38;;;8.73;43.64
72118;BME280;59992;47.490;8.736;2023-03-15T11:26:20;96756.52;;;8.81;43.06
72118;BME280;59992;47.490;8.736;2023-03-15T11:29:16;96759.53;;;8.74;43.52
72118;BME280;59992;47.490;8.736;2023-03-15T11:32:12;96758.56;;;8.68;41.36
72118;BME280;59992;47.490;8.736;2023-03-15T11:35:04;96757.41;;;8.58;40.91
72118;BME280;59992;47.490;8.736;2023-03-15T11:37:56;96750.30;;;8.51;42.71
72118;BME280;59992;47.490;8.736;2023-03-15T11:40:49;96754.55;;;8.39;42.75
72118;BME280;59992;47.490;8.736;2023-03-15T11:43:48;96753.75;;;8.23;41.06
72118;BME280;59992;47.490;8.736;2023-03-15T11:46:41;96748.86;;;8.33;39.96
72118;BME280;59992;47.490;8.736;2023-03-15T11:49:35;96746.30;;;8.39;40.75
72118;BME280;59992;47.490;8.736;2023-03-15T11:52:25;96739.36;;;8.48;41.57
72118;BME280;59992;47.490;8.736;2023-03-15T11:55:17;96729.92;;;8.58;40.48
72118;BME280;59992;47.490;8.736;2023-03-15T11:58:27;96724.77;;;8.73;41.07
72118;BME280;59992;47.490;8.736;2023-03-15T12:01:24;96730.32;;;8.74;41.80
72118;BME280;59992;47.490;8.736;2023-03-15T12:04:39;96724.88;;;8.78;41.39
72118;BME280;59992;47.490;8.736;2023-03-15T12:07:36;96717.28;;;8.89;40.08
72118;BME280;59992;47.490;8.736;2023-03-15T12:10:42;96720.06;;;8.92;39.66
72118;BME280;59992;47.490;8.736;2023-03-15T12:13:35;96712.33;;;8.97;38.02
72118;BME280;59992;47.490;8.736;2023-03-15T12:16:27;96709.89;;;8.90;37.59
72118;BME280;59992;47.490;8.736;2023-03-15T12:19:17;96707.43;;;8.71;38.08
72118;BME280;59992;47.490;8.736;2023-03-15T12:22:14;96709.73;;;8.79;39.74
72118;BME280;59992;47.490;8.736;2023-03-15T12:25:07;96709.92;;;8.95;39.64
72118;BME280;59992;47.490;8.736;2023-03-15T12:28:01;96707.60;;;8.96;38.89
72118;BME280;59992;47.490;8.736;2023-03-15T12:30:54;96707.23;;;8.79;39.70
72118;BME280;59992;47.490;8.736;2023-03-15T12:33:46;96716.33;;;8.70;38.90
72118;BME280;59992;47.490;8.736;2023-03-15T12:36:36;96709.89;;;8.70;38.63
72118;BME280;59992;47.490;8.736;2023-03-15T12:39:40;96703.21;;;8.85;39.12
72118;BME280;59992;47.490;8.736;2023-03-15T12:45:56;96696.25;;;8.98;37.96
72118;BME280;59992;47.490;8.736;2023-03-15T12:49:05;96697.02;;;9.13;37.29
72118;BME280;59992;47.490;8.736;2023-03-15T12:51:56;96698.77;;;9.07;35.83
72118;BME280;59992;47.490;8.736;2023-03-15T12:54:48;96703.73;;;9.24;36.48
72118;BME280;59992;47.490;8.736;2023-03-15T12:57:39;96701.06;;;9.38;36.23
72118;BME280;59992;47.490;8.736;2023-03-15T13:00:32;96699.55;;;9.49;37.13
72118;BME280;59992;47.490;8.736;2023-03-15T13:03:24;96694.56;;;9.53;36.17
72118;BME280;59992;47.490;8.736;2023-03-15T13:06:20;96695.19;;;9.54;36.06
72118;BME280;59992;47.490;8.736;2023-03-15T13:09:25;96698.69;;;9.55;36.89
72118;BME280;59992;47.490;8.736;2023-03-15T13:12:22;96696.69;;;9.69;36.08
72118;BME280;59992;47.490;8.736;2023-03-15T13:15:18;96702.73;;;9.83;36.52
72118;BME280;59992;47.490;8.736;2023-03-15T13:18:13;96696.43;;;9.89;35.23
72118;BME280;59992;47.490;8.736;2023-03-15T13:21:11;96692.92;;;10.05;35.80
72118;BME280;59992;47.490;8.736;2023-03-15T13:24:08;96694.20;;;10.12;36.58
72118;BME280;59992;47.490;8.736;2023-03-15T13:27:02;96693.70;;;10.09;36.85
72118;BME280;59992;47.490;8.736;2023-03-15T13:29:52;96695.41;;;10.00;35.98
72118;BME280;59992;47.490;8.736;2023-03-15T13:32:42;96694.25;;;9.81;38.19
72118;BME280;59992;47.490;8.736;2023-03-15T13:35:30;96689.98;;;9.92;38.26
72118;BME280;59992;47.490;8.736;2023-03-15T13:38:24;96691.55;;;9.91;39.55
72118;BME280;59992;47.490;8.736;2023-03-15T13:41:18;96692.27;;;10.02;40.64
72118;BME280;59992;47.490;8.736;2023-03-15T13:44:16;96694.95;;;9.90;39.75
72118;BME280;59992;47.490;8.736;2023-03-15T13:47:04;96694.48;;;9.81;41.20
72118;BME280;59992;47.490;8.736;2023-03-15T13:49:55;96697.38;;;9.66;41.87
72118;BME280;59992;47.490;8.736;2023-03-15T13:52:44;96698.52;;;9.43;41.71
72118;BME280;59992;47.490;8.736;2023-03-15T13:55:35;96691.42;;;9.52;41.53
72118;BME280;59992;47.490;8.736;2023-03-15T13:58:23;96692.92;;;9.58;41.04
72118;BME280;59992;47.490;8.736;2023-03-15T14:01:13;96691.98;;;9.57;41.05
72118;BME280;59992;47.490;8.736;2023-03-15T14:04:06;96691.28;;;9.52;40.74
72118;BME280;59992;47.490;8.736;2023-03-15T14:07:07;96686.14;;;9.43;41.45
72118;BME280;59992;47.490;8.736;2023-03-15T14:10:22;96688.43;;;9.30;40.84
72118;BME280;59992;47.490;8.736;2023-03-15T14:13:21;96690.16;;;9.18;42.17
72118;BME280;59992;47.490;8.736;2023-03-15T14:16:15;96691.39;;;9.12;42.13
72118;BME280;59992;47.490;8.736;2023-03-15T14:19:18;96690.31;;;9.18;42.90
72118;BME280;59992;47.490;8.736;2023-03-15T14:22:16;96684.65;;;9.19;41.47
72118;BME280;59992;47.490;8.736;2023-03-15T14:25:19;96682.98;;;9.29;42.23
72118;BME280;59992;47.490;8.736;2023-03-15T14:28:12;96686.45;;;9.40;42.96
72118;BME280;59992;47.490;8.736;2023-03-15T14:31:01;96685.67;;;9.48;41.37
72118;BME280;59992;47.490;8.736;2023-03-15T14:33:55;96681.20;;;9.50;40.23
72118;BME280;59992;47.490;8.736;2023-03-15T14:36:46;96686.50;;;9.43;41.36
72118;BME280;59992;47.490;8.736;2023-03-15T14:39:39;96688.27;;;9.37;40.67
72118;BME280;59992;47.490;8.736;2023-03-15T14:42:28;96690.23;;;9.32;41.64
72118;BME280;59992;47.490;8.736;2023-03-15T14:45:16;96692.64;;;9.21;41.76
72118;BME280;59992;47.490;8.736;2023-03-15T14:48:06;96696.52;;;9.19;41.69
72118;BME280;59992;47.490;8.736;2023-03-15T14:50:57;96699.58;;;9.20;41.22
72118;BME280;59992;47.490;8.736;2023-03-15T14:53:48;96700.34;;;9.14;41.24
72118;BME280;59992;47.490;8.736;2023-03-15T14:56:37;96694.17;;;9.19;41.90
72118;BME280;59992;47.490;8.736;2023-03-15T14:59:26;96698.83;;;9.24;41.90
72118;BME280;59992;47.490;8.736;2023-03-15T15:02:16;96697.50;;;9.33;43.05
72118;BME280;59992;47.490;8.736;2023-03-15T15:05:17;96690.29;;;9.35;42.54
72118;BME280;59992;47.490;8.736;2023-03-15T15:08:09;96694.36;;;9.43;41.85
72118;BME280;59992;47.490;8.736;2023-03-15T15:10:59;96690.30;;;9.37;40.41
72118;BME280;59992;47.490;8.736;2023-03-15T15:13:49;96690.69;;;9.25;40.79
72118;BME280;59992;47.490;8.736;2023-03-15T15:16:37;96686.98;;;9.14;41.18
72118;BME280;59992;47.490;8.736;2023-03-15T15:19:25;96688.02;;;9.05;41.41